Time;durP1;ratioP1;P1;durP2;ratioP2;P2;SDS_P1;SDS_P2;PMS_P1;PMS_P2;Temp;Humidity;BMP_temperature;BMP_pressure;BME280_temperature;BME280_humidity;BME280_pressure;Samples;Min_cycle;Max_cycle;Signal;HPM_P1;HPM_P2
2023/06/11 00:00:54;;;;;;;;;;;;;;;;;;2209459;59;1504;-23
2023/06/11 00:03:24;;;;;;;;;;;;;;;;;;2209664;59;1779;-23
2023/06/11 00:05:54;;;;;;;;;;;;;;;;;;2212985;66;1391;-23
2023/06/11 00:08:25;;;;;;;;;;;;;;;;;;2212085;66;1271;-23
2023/06/11 00:10:55;;;;;;;;;;;;;;;;;;2212598;59;1536;-23
2023/06/11 00:13:28;;;;;;;;;;;;;;;;;;2213158;66;1256;-23
2023/06/11 00:15:59;;;;;;;;;;;;;;;;;;2214204;66;1936;-23
2023/06/11 00:18:29;;;;;;;;;;;;;;;;;;2212555;66;1265;-23
2023/06/11 00:20:59;;;;;;;;;;;;;;;;;;2213172;66;1284;-23
2023/06/11 00:23:30;;;;;;;;;;;;;;;;;;2211918;66;2010;-23
2023/06/11 00:26:00;;;;;;;;;;;;;;;;;;2213151;66;1273;-23
2023/06/11 00:28:30;;;;;;;;;;;;;;;;;;2212859;66;1172;-23
2023/06/11 00:31:03;;;;;;;;;;;;;;;;;;2212631;59;1460;-23
2023/06/11 00:33:33;;;;;;;;;;;;;;;;;;2211645;66;1188;-23
2023/06/11 00:36:04;;;;;;;;;;;;;;;;;;2212325;59;1938;-23
2023/06/11 00:38:35;;;;;;;;;;;;;;;;;;2208753;67;1696;-23
2023/06/11 00:41:05;;;;;;;;;;;;;;;;;;2208348;67;1439;-23
2023/06/11 00:43:37;;;;;;;;;;;;;;;;;;2211765;66;1149;-23
2023/06/11 00:46:10;;;;;;;;;;;;;;;;;;2211875;67;1261;-23
2023/06/11 00:48:41;;;;;;;;;;;;;;;;;;2208852;67;2296;-22
2023/06/11 00:51:11;;;;;;;;;;;;;;;;;;2211950;59;2111;-23
2023/06/11 00:53:42;;;;;;;;;;;;;;;;;;2211835;66;1490;-22
2023/06/11 00:56:17;;;;;;;;;;;;;;;;;;2212167;66;1932;-22
2023/06/11 00:58:49;;;;;;;;;;;;;;;;;;2211832;66;2146;-23
2023/06/11 01:01:29;;;;;;;;;;;;;;;;;;2205952;59;1417;-23
2023/06/11 01:04:00;;;;;;;;;;;;;;;;;;2211528;66;1107;-22
2023/06/11 01:06:33;;;;;;;;;;;;;;;;;;2211820;66;1303;-23
2023/06/11 01:09:04;;;;;;;;;;;;;;;;;;2208746;59;1710;-22
2023/06/11 01:11:38;;;;;;;;;;;;;;;;;;2211769;66;1559;-22
2023/06/11 01:14:13;;;;;;;;;;;;;;;;;;2211792;66;2112;-22
2023/06/11 01:16:46;;;;;;;;;;;;;;;;;;2212588;66;1984;-23
2023/06/11 01:19:52;;;;;;;;;;;;;;;;;;2208524;67;1198;-23
2023/06/11 01:22:29;;;;;;;;;;;;;;;;;;2200532;67;1885;-23
2023/06/11 01:25:11;;;;;;;;;;;;;;;;;;2210973;66;1537;-23
2023/06/11 01:27:54;;;;;;;;;;;;;;;;;;2209621;66;1938;-22
2023/06/11 01:30:24;;;;;;;;;;;;;;;;;;2209936;59;1683;-23
2023/06/11 01:32:56;;;;;;;;;;;;;;;;;;2211500;66;1634;-22
2023/06/11 01:35:27;;;;;;;;;;;;;;;;;;2212175;59;1949;-23
2023/06/11 01:37:58;;;;;;;;;;;;;;;;;;2211855;66;1247;-22
2023/06/11 01:40:28;;;;;;;;;;;;;;;;;;2212573;66;1968;-23
2023/06/11 01:42:58;;;;;;;;;;;;;;;;;;2212026;66;1636;-22
2023/06/11 01:45:32;;;;;;;;;;;;;;;;;;2211603;66;1209;-23
2023/06/11 01:48:02;;;;;;;;;;;;;;;;;;2211449;59;2168;-22
2023/06/11 01:50:33;;;;;;;;;;;;;;;;;;2212474;66;1445;-22
2023/06/11 01:53:03;;;;;;;;;;;;;;;;;;2210176;59;1632;-22
2023/06/11 01:55:37;;;;;;;;;;;;;;;;;;2213042;66;1934;-22
2023/06/11 01:58:07;;;;;;;;;;;;;;;;;;2211998;59;2098;-22
2023/06/11 02:00:37;;;;;;;;;;;;;;;;;;2212065;59;1934;-22
2023/06/11 02:03:08;;;;;;;;;;;;;;;;;;2211583;59;1419;-23
2023/06/11 02:05:38;;;;;;;;;;;;;;;;;;2208524;59;2161;-22
2023/06/11 02:08:09;;;;;;;;;;;;;;;;;;2209658;67;1411;-22
2023/06/11 02:10:39;;;;;;;;;;;;;;;;;;2209539;59;1780;-22
2023/06/11 02:13:09;;;;;;;;;;;;;;;;;;2208165;67;1429;-22
2023/06/11 02:15:43;;;;;;;;;;;;;;;;;;2209802;67;1948;-22
2023/06/11 02:18:13;;;;;;;;;;;;;;;;;;2211555;66;1667;-22
2023/06/11 02:20:43;;;;;;;;;;;;;;;;;;2211866;66;1316;-22
2023/06/11 02:23:13;;;;;;;;;;;;;;;;;;2212432;66;1195;-22
2023/06/11 02:25:44;;;;;;;;;;;;;;;;;;2214658;66;1652;-22
2023/06/11 02:28:15;;;;;;;;;;;;;;;;;;2212261;66;1220;-22
2023/06/11 02:30:45;;;;;;;;;;;;;;;;;;2212395;59;1483;-23
2023/06/11 02:33:15;;;;;;;;;;;;;;;;;;2211952;66;1955;-23
2023/06/11 02:35:46;;;;;;;;;;;;;;;;;;2208443;67;1984;-22
2023/06/11 02:38:16;;;;;;;;;;;;;;;;;;2211630;67;1217;-22
2023/06/11 02:40:46;;;;;;;;;;;;;;;;;;2212570;67;1265;-22
2023/06/11 02:43:16;;;;;;;;;;;;;;;;;;2211525;67;1685;-22
2023/06/11 02:45:46;;;;;;;;;;;;;;;;;;2211985;66;1253;-22
2023/06/11 02:48:17;;;;;;;;;;;;;;;;;;2212072;59;2093;-22
2023/06/11 02:50:47;;;;;;;;;;;;;;;;;;2208314;59;1281;-22
2023/06/11 02:53:17;;;;;;;;;;;;;;;;;;2210766;59;2248;-23
2023/06/11 02:55:47;;;;;;;;;;;;;;;;;;2211424;66;1937;-22
2023/06/11 02:58:17;;;;;;;;;;;;;;;;;;2211831;59;2131;-22
2023/06/11 03:00:48;;;;;;;;;;;;;;;;;;2211551;59;1257;-22
2023/06/11 03:03:18;;;;;;;;;;;;;;;;;;2226796;53;2294;-17
2023/06/11 03:05:51;;;;;;;;;;;;;;;;;;2225369;58;1461;-17
2023/06/11 03:08:21;;;;;;;;;;;;;;;;;;2222594;66;1647;-17
2023/06/11 03:10:52;;;;;;;;;;;;;;;;;;2226420;58;2313;-17
2023/06/11 03:13:22;;;;;;;;;;;;;;;;;;2222741;66;1764;-18
2023/06/11 03:15:52;;;;;;;;;;;;;;;;;;2222595;66;2099;-17
2023/06/11 03:18:22;;;;;;;;;;;;;;;;;;2222250;66;1899;-17
2023/06/11 03:20:53;;;;;;;;;;;;;;;;;;2222845;66;2119;-17
2023/06/11 03:23:23;;;;;;;;;;;;;;;;;;2222700;66;1807;-17
2023/06/11 03:25:53;;;;;;;;;;;;;;;;;;2223044;66;1110;-18
2023/06/11 03:28:26;;;;;;;;;;;;;;;;;;2222522;66;1436;-17
2023/06/11 03:30:56;;;;;;;;;;;;;;;;;;2219588;58;1502;-17
2023/06/11 03:33:26;;;;;;;;;;;;;;;;;;2218650;66;1311;-17
2023/06/11 03:35:56;;;;;;;;;;;;;;;;;;2219412;58;1959;-17
2023/06/11 03:38:27;;;;;;;;;;;;;;;;;;2223350;66;1728;-17
2023/06/11 03:40:57;;;;;;;;;;;;;;;;;;2223639;66;1391;-17
2023/06/11 03:43:27;;;;;;;;;;;;;;;;;;2220744;66;1281;-17
2023/06/11 03:46:00;;;;;;;;;;;;;;;;;;2222460;66;1216;-17
2023/06/11 03:48:31;;;;;;;;;;;;;;;;;;2222904;58;2169;-18
2023/06/11 03:51:01;;;;;;;;;;;;;;;;;;2219674;58;2027;-17
2023/06/11 03:53:32;;;;;;;;;;;;;;;;;;2222624;66;1371;-17
2023/06/11 03:56:02;;;;;;;;;;;;;;;;;;2218940;66;1939;-17
2023/06/11 03:58:33;;;;;;;;;;;;;;;;;;2219186;58;2049;-17
2023/06/11 04:01:03;;;;;;;;;;;;;;;;;;2218931;58;1771;-17
2023/06/11 04:03:33;;;;;;;;;;;;;;;;;;2222155;58;1310;-17
2023/06/11 04:06:04;;;;;;;;;;;;;;;;;;2222515;66;1319;-17
2023/06/11 04:08:34;;;;;;;;;;;;;;;;;;2221900;58;1974;-20
2023/06/11 04:11:05;;;;;;;;;;;;;;;;;;2222101;58;1374;-20
2023/06/11 04:13:35;;;;;;;;;;;;;;;;;;2222206;66;1798;-20
2023/06/11 04:16:05;;;;;;;;;;;;;;;;;;2218316;66;1992;-19
2023/06/11 04:18:36;;;;;;;;;;;;;;;;;;2222179;66;1613;-21
2023/06/11 04:21:06;;;;;;;;;;;;;;;;;;2222060;66;1658;-20
2023/06/11 04:23:36;;;;;;;;;;;;;;;;;;2222425;66;1214;-20
2023/06/11 04:26:10;;;;;;;;;;;;;;;;;;2222417;60;1139;-20
2023/06/11 04:28:43;;;;;;;;;;;;;;;;;;2220181;66;1917;-20
2023/06/11 04:31:14;;;;;;;;;;;;;;;;;;2220319;58;1253;-20
2023/06/11 04:33:52;;;;;;;;;;;;;;;;;;2216850;66;1385;-20
2023/06/11 04:36:24;;;;;;;;;;;;;;;;;;2222369;58;1932;-20
2023/06/11 04:38:55;;;;;;;;;;;;;;;;;;2222205;66;1183;-20
2023/06/11 04:41:26;;;;;;;;;;;;;;;;;;2218928;66;1247;-19
2023/06/11 04:43:56;;;;;;;;;;;;;;;;;;2220961;66;1178;-20
2023/06/11 04:46:27;;;;;;;;;;;;;;;;;;2221730;58;2147;-20
2023/06/11 04:48:58;;;;;;;;;;;;;;;;;;2222001;66;1223;-19
2023/06/11 04:51:32;;;;;;;;;;;;;;;;;;2218824;58;1310;-20
2023/06/11 04:54:08;;;;;;;;;;;;;;;;;;2222383;66;1422;-19
2023/06/11 04:56:38;;;;;;;;;;;;;;;;;;2222417;66;2021;-20
2023/06/11 04:59:09;;;;;;;;;;;;;;;;;;2222653;58;2074;-20
2023/06/11 05:01:46;;;;;;;;;;;;;;;;;;2222890;58;1370;-20
2023/06/11 05:04:16;;;;;;;;;;;;;;;;;;2221919;66;1380;-19
2023/06/11 05:06:47;;;;;;;;;;;;;;;;;;2219216;66;1325;-20
2023/06/11 05:09:17;;;;;;;;;;;;;;;;;;2222655;66;1432;-20
2023/06/11 05:11:47;;;;;;;;;;;;;;;;;;2218679;66;1775;-20
2023/06/11 05:14:17;;;;;;;;;;;;;;;;;;2222505;66;1316;-20
2023/06/11 05:16:50;;;;;;;;;;;;;;;;;;2222099;66;1923;-20
2023/06/11 05:19:20;;;;;;;;;;;;;;;;;;2222671;66;1521;-20
2023/06/11 05:21:50;;;;;;;;;;;;;;;;;;2222335;66;1245;-18
2023/06/11 05:24:21;;;;;;;;;;;;;;;;;;2219431;59;1111;-18
2023/06/11 05:26:54;;;;;;;;;;;;;;;;;;2222730;66;1138;-17
2023/06/11 05:29:25;;;;;;;;;;;;;;;;;;2219171;66;1560;-17
2023/06/11 05:31:56;;;;;;;;;;;;;;;;;;2222720;58;1690;-17
2023/06/11 05:34:26;;;;;;;;;;;;;;;;;;2220335;59;1184;-17
2023/06/11 05:36:56;;;;;;;;;;;;;;;;;;2222171;66;1936;-17
2023/06/11 05:39:26;;;;;;;;;;;;;;;;;;2222189;66;1516;-17
2023/06/11 05:41:57;;;;;;;;;;;;;;;;;;2219238;66;1239;-17
2023/06/11 05:44:27;;;;;;;;;;;;;;;;;;2222587;66;1125;-17
2023/06/11 05:46:57;;;;;;;;;;;;;;;;;;2222644;58;2178;-17
2023/06/11 05:49:27;;;;;;;;;;;;;;;;;;2222484;66;1248;-17
2023/06/11 05:51:58;;;;;;;;;;;;;;;;;;2222175;58;1402;-17
2023/06/11 05:54:28;;;;;;;;;;;;;;;;;;2222091;66;1227;-17
2023/06/11 05:56:58;;;;;;;;;;;;;;;;;;2220133;58;1984;-17
2023/06/11 05:59:29;;;;;;;;;;;;;;;;;;2222707;58;2064;-18
2023/06/11 06:01:59;;;;;;;;;;;;;;;;;;2223547;58;1247;-18
2023/06/11 06:04:30;;;;;;;;;;;;;;;;;;2222822;66;1294;-17
2023/06/11 06:07:00;;;;;;;;;;;;;;;;;;2222701;66;1633;-17
2023/06/11 06:09:30;;;;;;;;;;;;;;;;;;2223026;58;1338;-17
2023/06/11 06:12:00;;;;;;;;;;;;;;;;;;2222742;66;1745;-17
2023/06/11 06:14:31;;;;;;;;;;;;;;;;;;2222286;66;1278;-18
2023/06/11 06:17:01;;;;;;;;;;;;;;;;;;2222542;66;1913;-19
2023/06/11 06:19:32;;;;;;;;;;;;;;;;;;2222489;66;1156;-19
2023/06/11 06:22:02;;;;;;;;;;;;;;;;;;2222396;66;1262;-19
2023/06/11 06:24:32;;;;;;;;;;;;;;;;;;2222228;66;1268;-20
2023/06/11 06:27:03;;;;;;;;;;;;;;;;;;2219224;66;1323;-19
2023/06/11 06:29:33;;;;;;;;;;;;;;;;;;2222504;66;1342;-19
2023/06/11 06:32:03;;;;;;;;;;;;;;;;;;2223026;58;1725;-19
2023/06/11 06:34:34;;;;;;;;;;;;;;;;;;2223326;66;1494;-19
2023/06/11 06:37:07;;;;;;;;;;;;;;;;;;2219944;58;1988;-20
2023/06/11 06:39:38;;;;;;;;;;;;;;;;;;2222265;66;1152;-20
2023/06/11 06:42:08;;;;;;;;;;;;;;;;;;2222388;66;1261;-19
2023/06/11 06:44:41;;;;;;;;;;;;;;;;;;2220575;66;1793;-20
2023/06/11 06:47:13;;;;;;;;;;;;;;;;;;2222484;58;2108;-20
2023/06/11 06:49:43;;;;;;;;;;;;;;;;;;2220192;58;1294;-20
2023/06/11 06:52:13;;;;;;;;;;;;;;;;;;2222509;58;1401;-20
2023/06/11 06:54:48;;;;;;;;;;;;;;;;;;2221552;58;2414;-20
2023/06/11 06:57:18;;;;;;;;;;;;;;;;;;2221982;66;1923;-20
2023/06/11 06:59:49;;;;;;;;;;;;;;;;;;2218761;58;2399;-20
2023/06/11 07:02:19;;;;;;;;;;;;;;;;;;2220528;58;1321;-20
2023/06/11 07:04:50;;;;;;;;;;;;;;;;;;2219120;66;1266;-20
2023/06/11 07:07:20;;;;;;;;;;;;;;;;;;2221387;66;1772;-20
2023/06/11 07:09:51;;;;;;;;;;;;;;;;;;2222030;58;1688;-20
2023/06/11 07:12:21;;;;;;;;;;;;;;;;;;2219078;66;1462;-20
2023/06/11 07:14:52;;;;;;;;;;;;;;;;;;2218693;66;1602;-20
2023/06/11 07:17:23;;;;;;;;;;;;;;;;;;2222191;66;1925;-20
2023/06/11 07:19:54;;;;;;;;;;;;;;;;;;2222406;59;1204;-20
2023/06/11 07:22:24;;;;;;;;;;;;;;;;;;2222598;58;2122;-20
2023/06/11 07:24:56;;;;;;;;;;;;;;;;;;2222569;66;1136;-20
2023/06/11 07:27:26;;;;;;;;;;;;;;;;;;2218752;66;1535;-20
2023/06/11 07:29:57;;;;;;;;;;;;;;;;;;2221560;66;1122;-20
2023/06/11 07:32:27;;;;;;;;;;;;;;;;;;2221692;58;2102;-20
2023/06/11 07:34:57;;;;;;;;;;;;;;;;;;2218923;58;1622;-20
2023/06/11 07:37:27;;;;;;;;;;;;;;;;;;2220218;58;2305;-20
2023/06/11 07:39:58;;;;;;;;;;;;;;;;;;2218213;58;2316;-20
2023/06/11 07:42:28;;;;;;;;;;;;;;;;;;2219543;66;1293;-20
2023/06/11 07:44:58;;;;;;;;;;;;;;;;;;2218778;66;1517;-20
2023/06/11 07:47:28;;;;;;;;;;;;;;;;;;2221673;66;2743;-20
2023/06/11 07:49:59;;;;;;;;;;;;;;;;;;2218292;66;1856;-20
2023/06/11 07:52:29;;;;;;;;;;;;;;;;;;2219190;58;1334;-20
2023/06/11 07:55:00;;;;;;;;;;;;;;;;;;2221707;66;1138;-20
2023/06/11 07:57:30;;;;;;;;;;;;;;;;;;2218921;59;2030;-20
2023/06/11 08:00:01;;;;;;;;;;;;;;;;;;2221028;58;2631;-18
2023/06/11 08:02:31;;;;;;;;;;;;;;;;;;2218467;59;1440;-19
2023/06/11 08:05:02;;;;;;;;;;;;;;;;;;2221064;66;1643;-18
2023/06/11 08:07:32;;;;;;;;;;;;;;;;;;2221958;66;1903;-18
2023/06/11 08:10:02;;;;;;;;;;;;;;;;;;2218880;58;1299;-18
2023/06/11 08:12:33;;;;;;;;;;;;;;;;;;2222674;66;1402;-18
2023/06/11 08:15:03;;;;;;;;;;;;;;;;;;2221245;58;2241;-18
2023/06/11 08:17:33;;;;;;;;;;;;;;;;;;2220750;58;2485;-18
2023/06/11 08:20:07;;;;;;;;;;;;;;;;;;2218056;59;2131;-18
2023/06/11 08:22:37;;;;;;;;;;;;;;;;;;2220720;59;2076;-18
2023/06/11 08:25:09;;;;;;;;;;;;;;;;;;2221164;58;3304;-18
2023/06/11 08:27:39;;;;;;;;;;;;;;;;;;2221811;66;1319;-19
2023/06/11 08:30:10;;;;;;;;;;;;;;;;;;2215471;58;1384;-18
2023/06/11 08:32:40;;;;;;;;;;;;;;;;;;2221731;58;1487;-18
2023/06/11 08:35:10;;;;;;;;;;;;;;;;;;2220952;58;1460;-18
2023/06/11 08:37:40;;;;;;;;;;;;;;;;;;2219112;59;1929;-19
2023/06/11 08:40:12;;;;;;;;;;;;;;;;;;2216632;59;1797;-19
2023/06/11 08:42:42;;;;;;;;;;;;;;;;;;2221511;66;1146;-18
2023/06/11 08:45:12;;;;;;;;;;;;;;;;;;2221147;66;1424;-18
2023/06/11 08:47:50;;;;;;;;;;;;;;;;;;2219116;58;2174;-19
2023/06/11 08:50:23;;;;;;;;;;;;;;;;;;2220058;58;2092;-19
2023/06/11 08:52:53;;;;;;;;;;;;;;;;;;2221520;58;2033;-19
2023/06/11 08:55:24;;;;;;;;;;;;;;;;;;2220843;59;1338;-19
2023/06/11 08:57:54;;;;;;;;;;;;;;;;;;2214522;58;2124;-18
2023/06/11 09:00:25;;;;;;;;;;;;;;;;;;2218328;58;1686;-19
2023/06/11 09:02:55;;;;;;;;;;;;;;;;;;2220945;58;1449;-19
2023/06/11 09:05:25;;;;;;;;;;;;;;;;;;2221529;66;1763;-19
2023/06/11 09:07:57;;;;;;;;;;;;;;;;;;2220313;66;1220;-19
2023/06/11 09:10:27;;;;;;;;;;;;;;;;;;2218466;59;1618;-19
2023/06/11 09:12:59;;;;;;;;;;;;;;;;;;2220437;66;1304;-19
2023/06/11 09:15:29;;;;;;;;;;;;;;;;;;2215128;66;1747;-19
2023/06/11 09:18:00;;;;;;;;;;;;;;;;;;2219643;59;2176;-19
2023/06/11 09:20:31;;;;;;;;;;;;;;;;;;2219437;58;2206;-19
2023/06/11 09:23:01;;;;;;;;;;;;;;;;;;2216541;59;2047;-19
2023/06/11 09:25:33;;;;;;;;;;;;;;;;;;2219944;59;1980;-19
2023/06/11 09:28:06;;;;;;;;;;;;;;;;;;2219808;66;1325;-19
2023/06/11 09:30:37;;;;;;;;;;;;;;;;;;2220745;58;1950;-19
2023/06/11 09:33:14;;;;;;;;;;;;;;;;;;2221654;66;2011;-18
2023/06/11 09:35:45;;;;;;;;;;;;;;;;;;2221218;58;1933;-19
2023/06/11 09:38:16;;;;;;;;;;;;;;;;;;2220635;66;1229;-19
2023/06/11 09:40:46;;;;;;;;;;;;;;;;;;2217648;66;1309;-19
2023/06/11 09:43:23;;;;;;;;;;;;;;;;;;2217174;66;1617;-19
2023/06/11 09:45:54;;;;;;;;;;;;;;;;;;2221139;66;1236;-19
2023/06/11 09:48:25;;;;;;;;;;;;;;;;;;2220317;58;2073;-19
2023/06/11 09:50:55;;;;;;;;;;;;;;;;;;2220650;58;1367;-19
2023/06/11 09:53:26;;;;;;;;;;;;;;;;;;2221232;66;1432;-19
2023/06/11 09:55:56;;;;;;;;;;;;;;;;;;2218266;66;1948;-19
2023/06/11 09:58:28;;;;;;;;;;;;;;;;;;2216493;58;2160;-19
2023/06/11 10:01:00;;;;;;;;;;;;;;;;;;2221423;58;1400;-19
2023/06/11 10:03:30;;;;;;;;;;;;;;;;;;2220309;58;1719;-19
2023/06/11 10:06:04;;;;;;;;;;;;;;;;;;2218665;58;5457;-19
2023/06/11 10:08:35;;;;;;;;;;;;;;;;;;2216688;58;1860;-19
2023/06/11 10:11:07;;;;;;;;;;;;;;;;;;2217906;58;1682;-19
2023/06/11 10:13:37;;;;;;;;;;;;;;;;;;2216799;58;2666;-19
2023/06/11 10:16:08;;;;;;;;;;;;;;;;;;2220572;58;1931;-19
2023/06/11 10:18:39;;;;;;;;;;;;;;;;;;2220280;66;2117;-19
2023/06/11 10:21:09;;;;;;;;;;;;;;;;;;2216477;58;1884;-19
2023/06/11 10:23:40;;;;;;;;;;;;;;;;;;2216342;58;1366;-19
2023/06/11 10:26:11;;;;;;;;;;;;;;;;;;2216285;66;1649;-19
2023/06/11 10:28:43;;;;;;;;;;;;;;;;;;2219743;66;1814;-19
2023/06/11 10:31:23;;;;;;;;;;;;;;;;;;2220149;58;1694;-19
2023/06/11 10:34:00;;;;;;;;;;;;;;;;;;2219911;59;1451;-19
2023/06/11 10:36:35;;;;;;;;;;;;;;;;;;2216787;66;1947;-19
2023/06/11 10:39:22;;;;;;;;;;;;;;;;;;2216588;58;1836;-19
2023/06/11 10:42:02;;;;;;;;;;;;;;;;;;2221105;58;1904;-19
2023/06/11 10:44:39;;;;;;;;;;;;;;;;;;2220979;66;1945;-19
2023/06/11 10:47:10;;;;;;;;;;;;;;;;;;2220220;58;2146;-18
2023/06/11 10:49:40;;;;;;;;;;;;;;;;;;2220462;58;2091;-18
2023/06/11 10:52:11;;;;;;;;;;;;;;;;;;2220083;58;1744;-19
2023/06/11 10:54:43;;;;;;;;;;;;;;;;;;2220876;66;1489;-19
2023/06/11 10:57:13;;;;;;;;;;;;;;;;;;2219939;66;1933;-19
2023/06/11 10:59:49;;;;;;;;;;;;;;;;;;2219002;58;2296;-19
2023/06/11 11:02:20;;;;;;;;;;;;;;;;;;2220120;58;1712;-19
2023/06/11 11:04:51;;;;;;;;;;;;;;;;;;2220310;66;1506;-19
2023/06/11 11:07:33;;;;;;;;;;;;;;;;;;2216650;66;1846;-19
2023/06/11 11:10:07;;;;;;;;;;;;;;;;;;2220414;66;1611;-18
2023/06/11 11:12:41;;;;;;;;;;;;;;;;;;2219623;58;2100;-18
2023/06/11 11:15:12;;;;;;;;;;;;;;;;;;2218089;58;2364;-18
2023/06/11 11:17:43;;;;;;;;;;;;;;;;;;2220748;66;1929;-18
2023/06/11 11:20:17;;;;;;;;;;;;;;;;;;2219665;58;2528;-18
2023/06/11 11:22:52;;;;;;;;;;;;;;;;;;2218860;58;2470;-18
2023/06/11 11:25:29;;;;;;;;;;;;;;;;;;2219818;58;1878;-18
2023/06/11 11:27:59;;;;;;;;;;;;;;;;;;2220559;66;1500;-18
2023/06/11 11:30:30;;;;;;;;;;;;;;;;;;2218216;58;1735;-18
2023/06/11 11:33:00;;;;;;;;;;;;;;;;;;2221115;59;3494;-18
2023/06/11 11:35:30;;;;;;;;;;;;;;;;;;2220003;58;3114;-19
2023/06/11 11:38:02;;;;;;;;;;;;;;;;;;2217660;66;1935;-19
2023/06/11 11:40:36;;;;;;;;;;;;;;;;;;2219602;58;2258;-19
2023/06/11 11:43:09;;;;;;;;;;;;;;;;;;2219182;58;2127;-20
2023/06/11 11:45:44;;;;;;;;;;;;;;;;;;2220794;66;2012;-19
2023/06/11 11:48:15;;;;;;;;;;;;;;;;;;2216211;59;2170;-19
2023/06/11 11:50:50;;;;;;;;;;;;;;;;;;2220579;58;1782;-21
2023/06/11 11:53:21;;;;;;;;;;;;;;;;;;2215687;66;1957;-21
2023/06/11 11:55:51;;;;;;;;;;;;;;;;;;2221816;66;1990;-21
2023/06/11 11:58:22;;;;;;;;;;;;;;;;;;2219973;66;2165;-21
2023/06/11 12:00:53;;;;;;;;;;;;;;;;;;2221219;58;1944;-21
2023/06/11 12:03:24;;;;;;;;;;;;;;;;;;2220405;58;2381;-21
2023/06/11 12:05:58;;;;;;;;;;;;;;;;;;2218306;59;1920;-21
2023/06/11 12:08:29;;;;;;;;;;;;;;;;;;2218749;66;2104;-21
2023/06/11 12:11:00;;;;;;;;;;;;;;;;;;2221462;59;1812;-21
2023/06/11 12:13:31;;;;;;;;;;;;;;;;;;2221155;58;2134;-20
2023/06/11 12:16:01;;;;;;;;;;;;;;;;;;2217600;66;1995;-21
2023/06/11 12:18:32;;;;;;;;;;;;;;;;;;2220991;58;1997;-21
2023/06/11 12:21:02;;;;;;;;;;;;;;;;;;2220664;59;2307;-20
2023/06/11 12:23:32;;;;;;;;;;;;;;;;;;2220799;66;1659;-20
2023/06/11 12:26:03;;;;;;;;;;;;;;;;;;2221003;66;1951;-20
2023/06/11 12:28:34;;;;;;;;;;;;;;;;;;2220672;59;2502;-20
2023/06/11 12:31:04;;;;;;;;;;;;;;;;;;2222046;58;2429;-20
2023/06/11 12:33:34;;;;;;;;;;;;;;;;;;2221147;66;1932;-20
2023/06/11 12:36:04;;;;;;;;;;;;;;;;;;2222056;58;1943;-20
2023/06/11 12:38:38;;;;;;;;;;;;;;;;;;2220493;66;2608;-20
2023/06/11 12:41:08;;;;;;;;;;;;;;;;;;2221370;66;1691;-20
2023/06/11 12:43:38;;;;;;;;;;;;;;;;;;2221190;66;1964;-20
2023/06/11 12:46:11;;;;;;;;;;;;;;;;;;2221065;66;2455;-20
2023/06/11 12:48:41;;;;;;;;;;;;;;;;;;2221183;66;2623;-20
2023/06/11 12:51:12;;;;;;;;;;;;;;;;;;2217324;58;1788;-20
2023/06/11 12:53:42;;;;;;;;;;;;;;;;;;2221904;66;2660;-20
2023/06/11 12:56:13;;;;;;;;;;;;;;;;;;2220975;59;2001;-20
2023/06/11 12:58:43;;;;;;;;;;;;;;;;;;2217228;59;1966;-20
2023/06/11 13:01:13;;;;;;;;;;;;;;;;;;2220957;58;1563;-20
2023/06/11 13:03:43;;;;;;;;;;;;;;;;;;2217754;58;2130;-21
2023/06/11 13:06:14;;;;;;;;;;;;;;;;;;2221581;66;1805;-20
2023/06/11 13:08:44;;;;;;;;;;;;;;;;;;2221634;66;1625;-20
2023/06/11 13:11:14;;;;;;;;;;;;;;;;;;2218702;66;1278;-20
2023/06/11 13:13:45;;;;;;;;;;;;;;;;;;2221856;58;1709;-20
2023/06/11 13:16:15;;;;;;;;;;;;;;;;;;2220139;58;2500;-20
2023/06/11 13:18:45;;;;;;;;;;;;;;;;;;2221870;66;1674;-20
2023/06/11 13:21:16;;;;;;;;;;;;;;;;;;2217196;59;2145;-20
2023/06/11 13:23:46;;;;;;;;;;;;;;;;;;2215734;59;2400;-21
2023/06/11 13:26:16;;;;;;;;;;;;;;;;;;2221176;66;1578;-20
2023/06/11 13:28:47;;;;;;;;;;;;;;;;;;2219940;58;2886;-21
2023/06/11 13:31:17;;;;;;;;;;;;;;;;;;2218947;58;3056;-20
2023/06/11 13:33:48;;;;;;;;;;;;;;;;;;2219462;58;2267;-20
2023/06/11 13:36:18;;;;;;;;;;;;;;;;;;2219682;66;2530;-20
2023/06/11 13:38:48;;;;;;;;;;;;;;;;;;2217573;59;2258;-20
2023/06/11 13:41:19;;;;;;;;;;;;;;;;;;2219472;58;2200;-20
2023/06/11 13:43:49;;;;;;;;;;;;;;;;;;2218557;59;1841;-20
2023/06/11 13:46:19;;;;;;;;;;;;;;;;;;2216646;58;2241;-21
2023/06/11 13:48:49;;;;;;;;;;;;;;;;;;2220973;66;2354;-20
2023/06/11 13:51:20;;;;;;;;;;;;;;;;;;2220077;58;2325;-20
2023/06/11 13:53:51;;;;;;;;;;;;;;;;;;2221170;66;1973;-20
2023/06/11 13:56:21;;;;;;;;;;;;;;;;;;2220146;58;1998;-20
2023/06/11 13:58:51;;;;;;;;;;;;;;;;;;2221028;66;2233;-20
2023/06/11 14:01:22;;;;;;;;;;;;;;;;;;2220852;58;2142;-20
2023/06/11 14:03:52;;;;;;;;;;;;;;;;;;2221009;58;2078;-20
2023/06/11 14:06:22;;;;;;;;;;;;;;;;;;2220323;58;2222;-20
2023/06/11 14:08:52;;;;;;;;;;;;;;;;;;2221380;58;2627;-21
2023/06/11 14:11:23;;;;;;;;;;;;;;;;;;2220871;66;2148;-20
2023/06/11 14:13:54;;;;;;;;;;;;;;;;;;2220997;66;3040;-21
2023/06/11 14:16:25;;;;;;;;;;;;;;;;;;2220873;59;2189;-21
2023/06/11 14:18:55;;;;;;;;;;;;;;;;;;2220323;58;2217;-21
2023/06/11 14:21:28;;;;;;;;;;;;;;;;;;2221364;66;1676;-20
2023/06/11 14:24:01;;;;;;;;;;;;;;;;;;2221947;58;2379;-21
2023/06/11 14:26:32;;;;;;;;;;;;;;;;;;2223673;58;1804;-21
2023/06/11 14:29:02;;;;;;;;;;;;;;;;;;2217893;58;2917;-21
2023/06/11 14:31:34;;;;;;;;;;;;;;;;;;2222305;58;2456;-21
2023/06/11 14:34:04;;;;;;;;;;;;;;;;;;2219583;58;3149;-21
2023/06/11 14:36:34;;;;;;;;;;;;;;;;;;2221565;58;1941;-20
2023/06/11 14:39:05;;;;;;;;;;;;;;;;;;2221904;66;1826;-21
2023/06/11 14:41:35;;;;;;;;;;;;;;;;;;2221617;58;2010;-21
2023/06/11 14:44:05;;;;;;;;;;;;;;;;;;2221504;66;1786;-21
2023/06/11 14:46:35;;;;;;;;;;;;;;;;;;2220576;58;2100;-20
2023/06/11 14:49:09;;;;;;;;;;;;;;;;;;2221547;66;1808;-21
2023/06/11 14:51:40;;;;;;;;;;;;;;;;;;2222519;58;1972;-21
2023/06/11 14:54:10;;;;;;;;;;;;;;;;;;2220803;66;1880;-21
2023/06/11 14:56:40;;;;;;;;;;;;;;;;;;2221433;59;2934;-20
2023/06/11 14:59:11;;;;;;;;;;;;;;;;;;2220641;58;2015;-21
2023/06/11 15:01:41;;;;;;;;;;;;;;;;;;2221840;58;1860;-20
2023/06/11 15:04:11;;;;;;;;;;;;;;;;;;2221748;58;2360;-21
2023/06/11 15:06:42;;;;;;;;;;;;;;;;;;2221016;66;2755;-21
2023/06/11 15:09:12;;;;;;;;;;;;;;;;;;2221117;66;1862;-20
2023/06/11 15:11:42;;;;;;;;;;;;;;;;;;2215645;66;1903;-21
2023/06/11 15:14:12;;;;;;;;;;;;;;;;;;2217318;66;1756;-20
2023/06/11 15:16:44;;;;;;;;;;;;;;;;;;2221058;58;2055;-20
2023/06/11 15:19:14;;;;;;;;;;;;;;;;;;2219589;58;1997;-21
2023/06/11 15:21:44;;;;;;;;;;;;;;;;;;2221633;59;1800;-20
2023/06/11 15:24:15;;;;;;;;;;;;;;;;;;2220776;66;1906;-20
2023/06/11 15:26:46;;;;;;;;;;;;;;;;;;2221155;66;2720;-20
2023/06/11 15:29:16;;;;;;;;;;;;;;;;;;2221612;66;1493;-21
2023/06/11 15:31:46;;;;;;;;;;;;;;;;;;2218249;58;2741;-20
2023/06/11 15:34:17;;;;;;;;;;;;;;;;;;2220454;59;2240;-21
2023/06/11 15:36:47;;;;;;;;;;;;;;;;;;2218906;58;1960;-18
2023/06/11 15:39:17;;;;;;;;;;;;;;;;;;2218984;58;3207;-19
2023/06/11 15:41:47;;;;;;;;;;;;;;;;;;2221257;66;1726;-19
2023/06/11 15:44:18;;;;;;;;;;;;;;;;;;2221101;66;2394;-18
2023/06/11 15:46:48;;;;;;;;;;;;;;;;;;2221097;58;2158;-19
2023/06/11 15:49:18;;;;;;;;;;;;;;;;;;2219430;58;2253;-19
2023/06/11 15:51:48;;;;;;;;;;;;;;;;;;2218065;58;1248;-18
2023/06/11 15:54:18;;;;;;;;;;;;;;;;;;2219143;66;1718;-19
2023/06/11 15:56:49;;;;;;;;;;;;;;;;;;2218655;59;2569;-18
2023/06/11 15:59:19;;;;;;;;;;;;;;;;;;2217883;58;2565;-20
2023/06/11 16:01:49;;;;;;;;;;;;;;;;;;2221118;58;2186;-20
2023/06/11 16:04:20;;;;;;;;;;;;;;;;;;2220969;58;2650;-20
2023/06/11 16:06:50;;;;;;;;;;;;;;;;;;2222229;58;2041;-20
2023/06/11 16:09:20;;;;;;;;;;;;;;;;;;2222230;58;1354;-20
2023/06/11 16:11:50;;;;;;;;;;;;;;;;;;2219101;58;2031;-20
2023/06/11 16:14:21;;;;;;;;;;;;;;;;;;2222836;58;1271;-20
2023/06/11 16:16:51;;;;;;;;;;;;;;;;;;2221988;58;2013;-20
2023/06/11 16:19:21;;;;;;;;;;;;;;;;;;2221805;66;1360;-20
2023/06/11 16:21:51;;;;;;;;;;;;;;;;;;2223316;58;1241;-20
2023/06/11 16:24:25;;;;;;;;;;;;;;;;;;2221500;58;1367;-20
2023/06/11 16:26:55;;;;;;;;;;;;;;;;;;2222475;66;1684;-20
2023/06/11 16:29:25;;;;;;;;;;;;;;;;;;2221800;66;1208;-20
2023/06/11 16:31:56;;;;;;;;;;;;;;;;;;2222259;58;1257;-20
2023/06/11 16:34:26;;;;;;;;;;;;;;;;;;2218695;66;1787;-20
2023/06/11 16:36:56;;;;;;;;;;;;;;;;;;2220957;58;2123;-20
2023/06/11 16:39:26;;;;;;;;;;;;;;;;;;2219290;58;2388;-20
2023/06/11 16:41:57;;;;;;;;;;;;;;;;;;2221801;58;1733;-20
2023/06/11 16:44:27;;;;;;;;;;;;;;;;;;2221469;66;1324;-20
2023/06/11 16:46:57;;;;;;;;;;;;;;;;;;2222208;58;2190;-20
2023/06/11 16:49:27;;;;;;;;;;;;;;;;;;2221812;66;1507;-20
2023/06/11 16:51:59;;;;;;;;;;;;;;;;;;2221583;58;1549;-20
2023/06/11 16:54:29;;;;;;;;;;;;;;;;;;2222072;66;1624;-20
2023/06/11 16:57:00;;;;;;;;;;;;;;;;;;2221932;66;2016;-20
2023/06/11 16:59:30;;;;;;;;;;;;;;;;;;2222354;58;1884;-20
2023/06/11 17:02:00;;;;;;;;;;;;;;;;;;2221829;58;1291;-20
2023/06/11 17:04:30;;;;;;;;;;;;;;;;;;2220032;58;2150;-20
2023/06/11 17:07:01;;;;;;;;;;;;;;;;;;2218723;66;1667;-20
2023/06/11 17:09:31;;;;;;;;;;;;;;;;;;2220910;66;1693;-20
2023/06/11 17:12:01;;;;;;;;;;;;;;;;;;2222282;66;1262;-20
2023/06/11 17:14:31;;;;;;;;;;;;;;;;;;2221777;58;2207;-20
2023/06/11 17:17:02;;;;;;;;;;;;;;;;;;2222957;58;2124;-20
2023/06/11 17:19:33;;;;;;;;;;;;;;;;;;2221361;58;2189;-20
2023/06/11 17:22:04;;;;;;;;;;;;;;;;;;2221290;66;2137;-20
2023/06/11 17:24:34;;;;;;;;;;;;;;;;;;2217591;58;2510;-20
2023/06/11 17:27:05;;;;;;;;;;;;;;;;;;2221242;66;1565;-20
2023/06/11 17:29:35;;;;;;;;;;;;;;;;;;2220758;58;2071;-20